Time;durP1;ratioP1;P1;durP2;ratioP2;P2;SDS_P1;SDS_P2;PMS_P1;PMS_P2;Temp;Humidity;BMP_temperature;BMP_pressure;BME280_temperature;BME280_humidity;BME280_pressure;Samples;Min_cycle;Max_cycle;Signal;HPM_P1;HPM_P2
2021/12/24 00:01:14;;;;;;;;;24.50;22.50;;;;;21.55;45.99;99158.24;109333;1280;19833;-75
2021/12/24 00:03:40;;;;;;;;;22.50;21.50;;;;;21.58;45.74;99156.16;109373;1279;18629;-75
2021/12/24 00:06:06;;;;;;;;;31.00;25.00;;;;;21.58;45.85;99151.98;109323;1280;18934;-76
2021/12/24 00:08:32;;;;;;;;;25.50;23.00;;;;;21.57;45.64;99146.32;109342;1279;19464;-75
2021/12/24 00:11:00;;;;;;;;;31.00;26.50;;;;;21.57;45.79;99145.52;109330;1280;18491;-75
2021/12/24 00:13:26;;;;;;;;;27.00;25.67;;;;;21.58;45.79;99144.84;109360;1280;20402;-76
2021/12/24 00:15:58;;;;;;;;;30.00;26.00;;;;;21.58;45.73;99149.30;109328;1280;23301;-76
2021/12/24 00:18:34;;;;;;;;;25.00;22.33;;;;;21.56;45.72;99147.11;109274;1272;154905;-75
2021/12/24 00:37:30;;;;;;;;;29.67;24.00;;;;;21.56;45.61;99124.59;109311;1279;19295;-75
2021/12/24 00:40:06;;;;;;;;;21.50;21.00;;;;;21.56;45.58;99101.54;109341;1279;19375;-75
2021/12/24 00:42:32;;;;;;;;;25.00;21.00;;;;;21.56;45.57;99098.42;109343;1280;23363;-76
2021/12/24 00:44:58;;;;;;;;;25.00;22.00;;;;;21.56;45.70;99098.89;109314;1279;18720;-75
2021/12/24 00:47:25;;;;;;;;;26.00;23.00;;;;;21.56;45.53;99114.58;109400;1279;19355;-76
2021/12/24 00:49:51;;;;;;;;;24.67;23.00;;;;;21.57;45.63;99092.71;109324;1280;18753;-75
2021/12/24 00:52:33;;;;;;;;;25.00;23.50;;;;;21.56;45.64;99094.70;109382;1279;18691;-75
2021/12/24 00:55:09;;;;;;;;;26.00;25.00;;;;;21.56;45.66;99100.31;109377;1280;23101;-77
2021/12/24 00:57:35;;;;;;;;;24.67;21.00;;;;;21.52;45.69;99086.01;109312;1280;22028;-77
2021/12/24 01:00:01;;;;;;;;;26.50;22.00;;;;;21.55;45.50;99093.00;109341;1280;19248;-76
2021/12/24 01:02:27;;;;;;;;;31.00;26.00;;;;;21.54;45.54;99076.17;109339;1280;23288;-76
2021/12/24 01:04:53;;;;;;;;;26.50;23.00;;;;;21.54;45.50;99072.95;109346;1280;18744;-76
2021/12/24 01:07:18;;;;;;;;;24.00;22.00;;;;;21.53;45.58;99064.58;109369;1280;18696;-76
2021/12/24 01:09:44;;;;;;;;;23.00;21.50;;;;;21.53;45.52;99063.83;109337;1280;21200;-76
2021/12/24 01:12:10;;;;;;;;;25.00;22.00;;;;;21.53;45.56;99064.70;109279;1280;18646;-76
2021/12/24 01:14:36;;;;;;;;;27.50;23.00;;;;;21.53;45.51;99054.34;109286;1279;18649;-77
2021/12/24 01:17:10;;;;;;;;;23.50;21.00;;;;;21.52;45.58;99051.96;109235;1279;23473;-76
2021/12/24 01:19:39;;;;;;;;;18.00;18.00;;;;;21.52;45.50;99059.21;109300;1279;23000;-76
2021/12/24 01:22:38;;;;;;;;;22.00;21.67;;;;;21.54;45.58;99069.73;109372;1279;20299;-76
2021/12/24 01:25:04;;;;;;;;;21.33;18.67;;;;;21.54;45.65;99064.19;109374;1279;21233;-76
2021/12/24 01:27:52;;;;;;;;;21.00;19.33;;;;;21.54;45.62;99062.42;109334;1280;20386;-76
2021/12/24 01:38:36;;;;;;;;;27.00;24.50;;;;;21.51;45.43;99033.56;109322;1280;20608;-76
2021/12/24 01:41:07;;;;;;;;;22.00;20.00;;;;;21.54;45.48;99034.37;109300;1279;19624;-76
2021/12/24 01:43:33;;;;;;;;;19.00;18.50;;;;;21.54;45.37;99025.47;109345;1280;20796;-76
2021/12/24 01:45:58;;;;;;;;;22.00;21.50;;;;;21.55;45.44;99027.73;109331;1280;19137;-76
2021/12/24 01:48:24;;;;;;;;;22.00;21.00;;;;;21.55;45.15;99033.35;109300;1280;21909;-76
2021/12/24 01:50:50;;;;;;;;;20.00;18.00;;;;;21.54;45.39;99036.14;109316;1280;19298;-76
2021/12/24 01:53:16;;;;;;;;;19.00;19.00;;;;;21.53;45.27;99037.39;109306;1280;19072;-76
2021/12/24 01:55:42;;;;;;;;;22.00;18.00;;;;;21.54;45.41;99036.09;109381;1280;22565;-75
2021/12/24 01:58:08;;;;;;;;;22.50;21.50;;;;;21.54;45.36;99029.39;109351;1280;18583;-77
2021/12/24 02:00:36;;;;;;;;;19.00;18.50;;;;;21.50;45.39;99012.34;109374;1280;19517;-76
2021/12/24 02:03:02;;;;;;;;;21.33;19.00;;;;;21.52;45.32;99005.08;109429;1280;21227;-76
2021/12/24 02:05:29;;;;;;;;;19.00;18.00;;;;;21.54;45.19;98994.61;109421;1280;19724;-77
2021/12/24 02:07:55;;;;;;;;;18.00;17.00;;;;;21.52;45.36;98987.66;109408;1280;22396;-76
2021/12/24 02:10:21;;;;;;;;;23.00;19.00;;;;;21.53;45.45;98986.27;109341;1280;20905;-77
2021/12/24 02:12:47;;;;;;;;;22.00;21.00;;;;;21.52;45.31;98981.09;109328;1280;18841;-77
2021/12/24 02:15:21;;;;;;;;;22.00;19.00;;;;;21.52;45.22;98973.88;109360;1280;19022;-77
2021/12/24 02:18:02;;;;;;;;;19.00;18.00;;;;;21.51;45.31;98961.96;109331;1279;21282;-77
2021/12/24 02:28:40;;;;;;;;;21.33;18.67;;;;;21.52;45.09;98960.95;109398;1279;18904;-77
2021/12/24 02:31:06;;;;;;;;;19.00;16.00;;;;;21.51;45.36;98960.98;109385;1280;18653;-77
2021/12/24 02:33:32;;;;;;;;;21.50;18.00;;;;;21.50;45.20;98951.46;109388;1280;22537;-77
2021/12/24 02:35:58;;;;;;;;;18.00;17.00;;;;;21.50;45.29;98937.23;109405;1279;18964;-76
2021/12/24 02:38:24;;;;;;;;;23.50;20.50;;;;;21.48;45.20;98936.21;109311;1279;19291;-76
2021/12/24 02:40:50;;;;;;;;;21.50;21.00;;;;;21.50;45.24;98930.48;109307;1280;19726;-77
2021/12/24 02:43:19;;;;;;;;;21.00;18.00;;;;;21.49;45.12;98928.27;109318;1280;18595;-76
2021/12/24 02:45:47;;;;;;;;;22.00;18.00;;;;;21.50;45.08;98935.11;109308;1279;21030;-77
2021/12/24 02:48:46;;;;;;;;;18.33;17.00;;;;;21.49;45.11;98925.22;109358;1280;19673;-76
2021/12/24 02:53:57;;;;;;;;;20.33;19.33;;;;;21.51;45.06;98934.08;109326;1280;18836;-76
2021/12/24 02:56:25;;;;;;;;;18.00;14.67;;;;;21.49;45.04;98936.23;109342;1279;19649;-76
2021/12/24 02:58:51;;;;;;;;;21.67;20.00;;;;;21.50;45.07;98935.85;109308;1280;22160;-76
2021/12/24 03:01:17;;;;;;;;;21.67;17.67;;;;;21.50;45.08;98931.29;109346;1280;22664;-77
2021/12/24 03:03:48;;;;;;;;;21.00;18.00;;;;;21.51;45.08;98928.76;109328;1280;20855;-76
2021/12/24 03:06:14;;;;;;;;;25.67;20.00;;;;;21.49;45.09;98926.02;109342;1280;19755;-76
2021/12/24 03:08:39;;;;;;;;;18.00;17.00;;;;;21.50;45.04;98932.88;109320;1279;19157;-76
2021/12/24 03:11:05;;;;;;;;;21.00;20.00;;;;;21.51;45.02;98930.11;109309;1280;19305;-76
2021/12/24 03:13:31;;;;;;;;;16.50;15.00;;;;;21.48;45.13;98922.08;109374;1279;18654;-77
2021/12/24 03:15:57;;;;;;;;;17.00;16.00;;;;;21.48;45.23;98916.52;109139;1281;21937;-77
2021/12/24 03:18:27;;;;;;;;;18.00;15.33;;;;;21.49;45.08;98911.98;109352;1280;19543;-77
2021/12/24 03:21:00;;;;;;;;;15.00;14.00;;;;;21.48;44.98;98904.97;109345;1280;23173;-76
2021/12/24 03:23:35;;;;;;;;;21.00;18.00;;;;;21.48;45.23;98904.60;109351;1279;20686;-75
2021/12/24 03:26:01;;;;;;;;;18.00;17.00;;;;;21.48;45.02;98901.16;109335;1280;19594;-76
2021/12/24 03:28:27;;;;;;;;;18.50;17.00;;;;;21.49;45.14;98903.08;109301;1280;18574;-75
2021/12/24 03:30:53;;;;;;;;;21.00;18.00;;;;;21.49;45.09;98904.46;109385;1280;19182;-75
2021/12/24 03:33:19;;;;;;;;;18.00;16.50;;;;;21.49;45.15;98907.06;109354;1279;19472;-76
2021/12/24 03:35:44;;;;;;;;;16.50;16.50;;;;;21.48;45.09;98905.23;109328;1280;18533;-76
2021/12/24 03:38:10;;;;;;;;;18.00;16.00;;;;;21.48;45.22;98909.38;109282;1280;18765;-76
2021/12/24 03:40:36;;;;;;;;;19.00;15.00;;;;;21.48;45.06;98910.30;109372;1280;19613;-75
2021/12/24 03:43:02;;;;;;;;;21.00;20.00;;;;;21.48;45.03;98909.01;109334;1279;19072;-76
2021/12/24 03:45:34;;;;;;;;;19.00;17.00;;;;;21.48;45.19;98908.13;109309;1279;18652;-76
2021/12/24 03:48:04;;;;;;;;;17.00;14.67;;;;;21.48;45.03;98908.30;109315;1280;23167;-77
2021/12/24 03:50:45;;;;;;;;;20.00;18.00;;;;;21.48;44.99;98903.27;109385;1280;20410;-76
2021/12/24 03:55:51;;;;;;;;;20.00;17.00;;;;;21.48;45.22;98904.57;109316;1280;19752;-76
2021/12/24 03:58:17;;;;;;;;;18.00;17.00;;;;;21.47;44.97;98898.83;109341;1280;20484;-73
2021/12/24 04:00:43;;;;;;;;;18.00;16.00;;;;;21.48;45.15;98898.36;109361;1280;20155;-75
2021/12/24 04:03:09;;;;;;;;;16.50;15.00;;;;;21.47;45.16;98896.27;109359;1280;19923;-76
2021/12/24 04:05:35;;;;;;;;;18.00;17.00;;;;;21.46;45.07;98896.02;109330;1280;18656;-76
2021/12/24 04:08:01;;;;;;;;;17.50;17.00;;;;;21.47;45.01;98885.33;109301;1279;18596;-75
2021/12/24 04:10:35;;;;;;;;;17.00;13.00;;;;;21.45;45.16;98878.88;109330;1279;22505;-75
2021/12/24 04:13:01;;;;;;;;;21.67;16.67;;;;;21.46;45.08;98882.77;109334;1280;19042;-75
2021/12/24 04:15:26;;;;;;;;;17.00;15.00;;;;;21.47;45.09;98882.42;109318;1279;18732;-76
2021/12/24 04:17:52;;;;;;;;;21.50;18.00;;;;;21.46;44.88;98881.72;109361;1280;19480;-76
2021/12/24 04:25:47;;;;;;;;;18.33;16.33;;;;;21.44;44.97;98880.91;109314;1279;19671;-75
2021/12/24 04:28:13;;;;;;;;;16.00;14.00;;;;;21.45;45.06;98878.80;109361;1280;18960;-74
2021/12/24 04:30:44;;;;;;;;;15.00;14.00;;;;;21.43;45.03;98875.10;109395;1279;22216;-76
2021/12/24 04:33:16;;;;;;;;;16.00;14.00;;;;;21.44;44.97;98875.71;109362;1280;19626;-76
2021/12/24 04:35:45;;;;;;;;;20.67;18.00;;;;;21.44;45.05;98881.40;109347;1280;22379;-76
2021/12/24 04:38:29;;;;;;;;;20.00;17.00;;;;;21.44;45.13;98883.42;109308;1279;22901;-76
2021/12/24 04:51:56;;;;;;;;;15.33;15.33;;;;;21.43;45.19;98884.81;109366;1279;19558;-76
2021/12/24 05:02:49;;;;;;;;;16.33;16.00;;;;;21.43;45.28;98885.46;109400;1279;19168;-76
2021/12/24 05:05:21;;;;;;;;;13.67;13.00;;;;;21.44;45.08;98885.48;109419;1280;19489;-76
2021/12/24 05:08:09;;;;;;;;;17.00;14.00;;;;;21.44;45.03;98883.48;109415;1280;20890;-76
2021/12/24 05:10:37;;;;;;;;;16.00;14.00;;;;;21.47;45.12;98891.61;109399;1280;19437;-75
2021/12/24 05:13:03;;;;;;;;;16.00;13.67;;;;;21.50;45.41;98897.11;109410;1279;21168;-75
2021/12/24 05:15:30;;;;;;;;;16.00;14.00;;;;;21.53;45.25;98896.71;109430;1280;21453;-75
2021/12/24 05:18:09;;;;;;;;;16.00;14.00;;;;;21.52;45.23;98894.88;109390;1279;19763;-75
2021/12/24 05:23:20;;;;;;;;;14.67;13.67;;;;;21.48;45.25;98889.09;109337;1280;20379;-75
2021/12/24 05:25:45;;;;;;;;;17.00;16.00;;;;;21.48;45.37;98886.48;109312;1280;20201;-75
2021/12/24 05:28:11;;;;;;;;;17.50;14.00;;;;;21.49;45.19;98878.55;109334;1280;19448;-74
2021/12/24 05:30:37;;;;;;;;;15.00;13.00;;;;;21.47;45.24;98867.98;109385;1279;18561;-75
2021/12/24 05:33:03;;;;;;;;;16.50;14.00;;;;;21.45;45.26;98868.57;109342;1279;20174;-74
2021/12/24 05:35:29;;;;;;;;;15.00;13.50;;;;;21.46;45.29;98870.23;109347;1280;19337;-75
2021/12/24 05:37:55;;;;;;;;;13.50;13.00;;;;;21.44;45.27;98865.39;109324;1280;18963;-74
2021/12/24 05:40:20;;;;;;;;;16.00;14.00;;;;;21.45;45.18;98860.64;109381;1279;23304;-75
2021/12/24 05:42:46;;;;;;;;;13.50;13.00;;;;;21.45;45.28;98856.08;109344;1280;19511;-74
2021/12/24 05:45:12;;;;;;;;;13.50;13.50;;;;;21.47;45.13;98856.55;109359;1280;18553;-75
2021/12/24 05:47:38;;;;;;;;;16.00;14.00;;;;;21.47;45.16;98851.52;109286;1280;22345;-75
2021/12/24 05:50:05;;;;;;;;;17.50;13.00;;;;;21.48;45.27;98850.84;109356;1279;19266;-75
2021/12/24 05:52:31;;;;;;;;;16.33;16.00;;;;;21.50;45.13;98847.73;109342;1279;19134;-74
2021/12/24 05:54:57;;;;;;;;;16.00;14.00;;;;;21.49;45.21;98854.14;109313;1280;18633;-75
2021/12/24 05:57:23;;;;;;;;;14.00;13.00;;;;;21.49;45.04;98855.11;109342;1279;20992;-75
2021/12/24 05:59:49;;;;;;;;;14.67;12.00;;;;;21.49;45.03;98853.64;109335;1280;18955;-75
2021/12/24 06:02:15;;;;;;;;;14.00;14.00;;;;;21.51;45.04;98850.42;109345;1279;19299;-75
2021/12/24 06:04:41;;;;;;;;;14.00;13.50;;;;;21.49;45.15;98851.20;109357;1279;19348;-74
2021/12/24 06:07:06;;;;;;;;;14.00;13.00;;;;;21.54;44.92;98848.40;109319;1279;22422;-74
2021/12/24 06:09:32;;;;;;;;;15.00;12.50;;;;;21.53;44.92;98832.55;109443;1280;19155;-75
2021/12/24 06:11:58;;;;;;;;;13.50;12.50;;;;;21.54;45.12;98819.33;109422;1280;19349;-75
2021/12/24 06:14:24;;;;;;;;;17.00;15.00;;;;;21.56;44.90;98821.42;109417;1280;18771;-74
2021/12/24 06:17:01;;;;;;;;;18.00;17.00;;;;;21.56;44.93;98825.13;109373;1279;19436;-74
2021/12/24 06:19:27;;;;;;;;;14.00;14.00;;;;;21.55;44.87;98831.42;109442;1279;21008;-74
2021/12/24 06:21:53;;;;;;;;;16.00;13.00;;;;;21.56;44.93;98829.44;109387;1279;18611;-74
2021/12/24 06:24:19;;;;;;;;;16.50;14.00;;;;;21.51;44.86;98826.73;109405;1279;18657;-73
2021/12/24 06:26:45;;;;;;;;;14.00;13.00;;;;;21.53;45.18;98826.88;109372;1280;20125;-75
2021/12/24 06:29:11;;;;;;;;;19.00;16.00;;;;;21.52;45.20;98826.14;109349;1280;19193;-74
2021/12/24 06:31:36;;;;;;;;;15.00;13.00;;;;;21.56;45.17;98825.00;109343;1280;18667;-75
2021/12/24 06:34:02;;;;;;;;;16.00;13.00;;;;;21.57;45.02;98826.45;109361;1280;19350;-75
2021/12/24 06:36:30;;;;;;;;;13.00;12.00;;;;;21.59;44.99;98819.81;109369;1280;18578;-75
2021/12/24 06:38:56;;;;;;;;;13.33;13.00;;;;;21.59;45.09;98814.52;109337;1280;19688;-74
2021/12/24 06:41:22;;;;;;;;;14.00;12.50;;;;;21.60;45.36;98827.86;109339;1280;22374;-74
2021/12/24 06:43:48;;;;;;;;;16.00;13.00;;;;;21.60;45.17;98831.24;109357;1279;24650;-74
2021/12/24 06:46:14;;;;;;;;;14.00;13.00;;;;;21.64;45.31;98842.56;109383;1280;18575;-73
2021/12/24 06:48:41;;;;;;;;;14.00;14.00;;;;;21.65;45.50;98845.36;109324;1279;21323;-77
2021/12/24 06:51:07;;;;;;;;;13.00;12.00;;;;;21.65;45.96;98852.91;109293;1280;19442;-78
2021/12/24 06:53:33;;;;;;;;;20.50;17.50;;;;;21.55;45.98;98854.20;109241;1279;18769;-74
2021/12/24 06:55:58;;;;;;;;;25.00;21.00;;;;;21.46;45.51;98857.20;109348;1279;23211;-75
2021/12/24 06:58:24;;;;;;;;;18.00;17.50;;;;;21.48;45.16;98850.35;109383;1280;18774;-74
2021/12/24 07:00:50;;;;;;;;;20.00;17.00;;;;;21.50;45.22;98854.02;109335;1279;19345;-74
2021/12/24 07:03:16;;;;;;;;;22.00;18.00;;;;;21.57;45.58;98862.61;109291;1280;20190;-74
2021/12/24 07:05:42;;;;;;;;;17.00;16.00;;;;;21.60;45.74;98868.33;109285;1280;18739;-73
2021/12/24 07:08:08;;;;;;;;;21.00;15.00;;;;;21.63;45.77;98868.48;109338;1280;18717;-75
2021/12/24 07:10:34;;;;;;;;;15.00;14.00;;;;;21.66;45.85;98867.21;109352;1279;20865;-74
2021/12/24 07:13:00;;;;;;;;;15.00;15.00;;;;;21.65;46.12;98868.67;109344;1279;19285;-76
2021/12/24 07:15:26;;;;;;;;;15.00;14.00;;;;;21.65;46.23;98865.25;109332;1279;18914;-74
2021/12/24 07:17:51;;;;;;;;;18.00;16.00;;;;;21.66;46.42;98866.74;109328;1281;19854;-74
2021/12/24 07:20:17;;;;;;;;;14.00;13.00;;;;;21.68;47.09;98866.80;109321;1280;18612;-74
2021/12/24 07:22:43;;;;;;;;;17.00;15.00;;;;;21.71;47.19;98866.98;109335;1280;19451;-75
2021/12/24 07:25:09;;;;;;;;;15.00;14.00;;;;;21.68;47.12;98875.23;109313;1279;19335;-74
2021/12/24 07:27:35;;;;;;;;;16.00;16.00;;;;;21.69;47.41;98884.11;109330;1279;18758;-74
2021/12/24 07:30:01;;;;;;;;;14.50;14.00;;;;;21.68;47.42;98876.23;109284;1280;23792;-74
2021/12/24 07:32:27;;;;;;;;;18.00;17.00;;;;;21.70;47.38;98880.53;109276;1279;23135;-74
2021/12/24 07:34:52;;;;;;;;;17.00;16.00;;;;;21.72;47.58;98880.71;109333;1280;19231;-75
2021/12/24 07:37:18;;;;;;;;;15.50;14.00;;;;;21.73;48.00;98886.23;109332;1279;23688;-76
2021/12/24 07:39:44;;;;;;;;;20.50;18.00;;;;;21.71;47.93;98878.73;109297;1280;19630;-76
2021/12/24 07:42:10;;;;;;;;;21.50;17.50;;;;;21.71;48.07;98855.54;109311;1280;19987;-76
2021/12/24 07:44:36;;;;;;;;;18.00;17.00;;;;;21.72;47.97;98866.64;109315;1280;18755;-75
2021/12/24 07:47:03;;;;;;;;;18.00;17.00;;;;;21.73;47.90;98862.08;109337;1279;19301;-76
2021/12/24 07:49:30;;;;;;;;;17.00;17.00;;;;;21.74;47.84;98859.38;109327;1280;20356;-76
2021/12/24 07:52:02;;;;;;;;;20.33;20.00;;;;;21.74;47.61;98852.88;109310;1280;19856;-76
2021/12/24 07:54:28;;;;;;;;;23.00;17.67;;;;;21.74;47.23;98852.45;109361;1280;20529;-76
2021/12/24 07:56:53;;;;;;;;;24.50;22.00;;;;;21.74;47.36;98855.18;109379;1280;18522;-75
2021/12/24 07:59:20;;;;;;;;;18.00;17.00;;;;;21.77;47.46;98853.11;109335;1280;19998;-76
2021/12/24 08:01:47;;;;;;;;;21.67;19.00;;;;;21.78;47.67;98855.14;109366;1280;20005;-76
2021/12/24 08:04:12;;;;;;;;;18.33;17.67;;;;;21.81;47.57;98852.83;109325;1279;18950;-74
2021/12/24 08:06:38;;;;;;;;;26.50;22.00;;;;;21.85;47.40;98841.80;109310;1280;18828;-76
2021/12/24 08:09:06;;;;;;;;;22.50;22.00;;;;;21.87;47.75;98834.79;109375;1280;19472;-76
2021/12/24 08:11:32;;;;;;;;;28.00;22.33;;;;;21.87;48.61;98829.27;109289;1280;19424;-76
2021/12/24 08:13:58;;;;;;;;;28.00;22.50;;;;;21.87;48.98;98831.77;109349;1280;19458;-74
2021/12/24 08:16:24;;;;;;;;;28.00;26.00;;;;;21.88;49.65;98837.35;109338;1280;21297;-76
2021/12/24 08:18:50;;;;;;;;;26.00;25.33;;;;;21.92;50.56;98837.42;108437;1279;1183916;-76
2021/12/24 08:21:16;;;;;;;;;27.00;23.00;;;;;21.89;50.98;98841.06;109295;1280;22922;-75
2021/12/24 08:23:45;;;;;;;;;28.50;25.00;;;;;21.85;51.74;98837.94;109295;1280;19341;-74
2021/12/24 08:26:11;;;;;;;;;31.50;27.00;;;;;21.84;51.50;98847.63;109337;1280;20603;-74
2021/12/24 08:28:37;;;;;;;;;29.50;27.00;;;;;21.83;51.57;98851.80;109328;1279;18734;-75
2021/12/24 08:31:03;;;;;;;;;29.00;26.00;;;;;21.84;51.11;98844.85;109375;1280;19356;-73
2021/12/24 08:33:29;;;;;;;;;30.00;29.33;;;;;21.87;50.82;98842.20;109218;1280;21329;-75
2021/12/24 08:35:55;;;;;;;;;32.00;29.50;;;;;21.84;50.66;98834.75;109349;1279;20410;-73
2021/12/24 08:38:21;;;;;;;;;34.00;29.00;;;;;21.83;50.32;98835.11;109366;1280;19447;-73
2021/12/24 08:40:47;;;;;;;;;33.00;30.00;;;;;21.83;50.21;98842.98;109298;1279;23209;-73
2021/12/24 08:43:12;;;;;;;;;37.00;31.00;;;;;21.79;50.09;98840.70;109327;1279;18674;-73
2021/12/24 08:45:38;;;;;;;;;30.50;28.50;;;;;21.75;49.81;98838.69;109339;1280;19184;-73
2021/12/24 08:48:04;;;;;;;;;29.00;23.50;;;;;21.73;49.85;98835.32;109309;1280;18751;-74
2021/12/24 08:50:30;;;;;;;;;34.50;28.50;;;;;21.73;49.81;98823.36;109322;1278;22485;-76
2021/12/24 08:52:56;;;;;;;;;32.00;29.00;;;;;21.72;49.60;98816.42;109334;1280;19538;-74
2021/12/24 08:55:22;;;;;;;;;38.00;29.00;;;;;21.71;49.70;98817.58;109310;1280;18753;-74
2021/12/24 08:57:48;;;;;;;;;30.00;26.00;;;;;21.69;49.63;98815.56;109314;1280;19680;-75
2021/12/24 09:00:14;;;;;;;;;30.00;27.00;;;;;21.70;49.20;98803.52;109307;1279;19351;-75
2021/12/24 09:02:39;;;;;;;;;33.50;28.00;;;;;21.67;49.31;98807.27;109210;1279;23173;-74
2021/12/24 09:05:05;;;;;;;;;27.00;23.50;;;;;21.66;49.14;98804.84;109325;1279;19145;-74
2021/12/24 09:07:31;;;;;;;;;29.00;25.50;;;;;21.61;49.17;98800.28;109287;1279;19960;-75
2021/12/24 09:09:57;;;;;;;;;27.50;23.50;;;;;21.64;49.12;98802.55;109340;1279;18564;-74
2021/12/24 09:12:23;;;;;;;;;32.50;25.50;;;;;21.64;49.09;98806.59;109368;1279;19247;-75
2021/12/24 09:14:49;;;;;;;;;29.50;26.00;;;;;21.61;49.20;98794.19;109382;1280;20078;-76
2021/12/24 09:17:15;;;;;;;;;25.50;21.50;;;;;21.59;49.19;98790.29;109317;1280;20263;-75
2021/12/24 09:19:47;;;;;;;;;26.50;23.50;;;;;21.59;48.87;98779.80;109314;1280;20523;-75
2021/12/24 09:22:16;;;;;;;;;27.67;25.33;;;;;21.61;48.94;98782.96;109359;1279;22162;-75
2021/12/24 09:24:43;;;;;;;;;25.33;22.00;;;;;21.61;48.89;98783.55;109324;1279;21556;-75
2021/12/24 09:27:09;;;;;;;;;27.67;26.33;;;;;21.61;48.75;98783.92;109326;1280;20459;-76
2021/12/24 09:29:34;;;;;;;;;26.00;23.50;;;;;21.58;48.55;98778.14;109378;1279;20053;-76
2021/12/24 09:32:00;;;;;;;;;26.00;24.00;;;;;21.67;48.93;98787.53;109314;1279;19283;-75
2021/12/24 09:34:26;;;;;;;;;25.00;22.00;;;;;21.67;48.97;98790.73;109320;1279;23201;-77
2021/12/24 09:36:52;;;;;;;;;36.50;32.00;;;;;21.65;48.90;98793.81;109302;1279;19944;-76
2021/12/24 09:39:18;;;;;;;;;101.33;73.00;;;;;21.66;48.94;98792.79;109292;1280;19213;-76
2021/12/24 09:41:44;;;;;;;;;115.00;92.00;;;;;21.65;49.04;98786.64;109245;1280;22702;-75
2021/12/24 09:44:10;;;;;;;;;147.67;112.67;;;;;21.62;48.81;98781.56;109304;1279;21374;-76
2021/12/24 09:46:40;;;;;;;;;210.50;162.50;;;;;21.65;48.93;98771.84;109290;1280;23083;-74
2021/12/24 09:49:06;;;;;;;;;242.25;192.00;;;;;21.64;49.03;98761.98;109320;1279;21191;-76
2021/12/24 09:51:32;;;;;;;;;243.75;184.00;;;;;21.66;48.99;98751.74;109297;1280;19330;-75
2021/12/24 09:53:57;;;;;;;;;227.00;172.25;;;;;21.70;49.02;98748.03;109272;1279;19080;-76
2021/12/24 09:56:23;;;;;;;;;192.33;150.33;;;;;21.72;48.93;98745.10;109304;1280;18910;-77
2021/12/24 09:58:49;;;;;;;;;190.00;141.33;;;;;21.73;49.15;98741.85;109312;1279;21562;-77
2021/12/24 10:01:15;;;;;;;;;165.33;126.67;;;;;21.74;49.37;98740.12;109279;1280;18926;-76
2021/12/24 10:03:41;;;;;;;;;153.33;115.67;;;;;21.76;49.39;98743.88;109299;1280;18787;-76
2021/12/24 10:06:07;;;;;;;;;134.67;104.67;;;;;21.76;49.35;98745.08;109301;1280;21284;-75
2021/12/24 10:08:33;;;;;;;;;125.50;94.00;;;;;21.76;49.27;98740.98;109308;1280;18955;-76
2021/12/24 10:10:59;;;;;;;;;120.67;94.00;;;;;21.76;49.35;98744.11;109306;1280;19433;-76
2021/12/24 10:13:26;;;;;;;;;108.67;83.00;;;;;21.75;49.14;98745.55;109290;1279;20150;-76
2021/12/24 10:15:51;;;;;;;;;102.33;81.00;;;;;21.76;49.03;98746.05;109298;1280;24330;-76
2021/12/24 10:18:17;;;;;;;;;102.00;78.00;;;;;21.76;49.11;98750.96;109144;1280;18768;-75
2021/12/24 10:20:43;;;;;;;;;101.67;76.00;;;;;21.77;48.96;98746.20;109252;1280;19337;-75
2021/12/24 10:23:11;;;;;;;;;100.33;75.33;;;;;21.76;48.91;98742.54;109148;1279;19522;-76
2021/12/24 10:25:36;;;;;;;;;95.67;71.33;;;;;21.75;49.20;98736.13;109272;1279;20485;-75
2021/12/24 10:28:02;;;;;;;;;96.00;70.33;;;;;21.73;49.12;98730.77;109296;1280;19339;-75
2021/12/24 10:30:30;;;;;;;;;94.67;68.67;;;;;21.75;49.55;98721.82;109267;1280;18697;-75
2021/12/24 10:32:57;;;;;;;;;88.00;66.00;;;;;21.75;49.66;98709.73;109343;1279;18978;-76
2021/12/24 10:35:23;;;;;;;;;91.50;67.00;;;;;21.76;49.72;98697.77;109306;1280;20251;-75
2021/12/24 10:37:49;;;;;;;;;87.33;64.00;;;;;21.79;49.57;98697.56;109378;1279;18536;-76
2021/12/24 10:40:14;;;;;;;;;81.67;61.00;;;;;21.76;48.82;98691.48;109340;1279;22001;-76
2021/12/24 10:42:42;;;;;;;;;96.33;72.33;;;;;21.79;48.64;98703.10;109303;1280;19406;-76
2021/12/24 10:45:08;;;;;;;;;110.33;94.67;;;;;21.77;48.93;98695.84;109288;1280;18794;-78
2021/12/24 10:47:37;;;;;;;;;109.00;88.33;;;;;21.80;48.88;98693.60;109328;1280;19498;-77
2021/12/24 10:55:24;;;;;;;;;103.00;79.00;;;;;21.20;47.82;98690.51;109351;1280;19458;-79
2021/12/24 10:57:51;;;;;;;;;90.67;69.33;;;;;21.10;47.85;98688.38;109328;1279;21930;-79
2021/12/24 11:00:17;;;;;;;;;85.33;66.33;;;;;21.30;48.16;98673.38;109366;1279;19788;-79
2021/12/24 11:02:43;;;;;;;;;81.33;61.00;;;;;21.49;48.45;98682.25;109368;1280;18746;-81
2021/12/24 11:05:09;;;;;;;;;81.67;59.67;;;;;21.60;48.58;98683.33;109304;1279;20116;-80
2021/12/24 11:07:35;;;;;;;;;70.00;56.33;;;;;21.67;48.63;98688.13;109333;1280;20233;-80
2021/12/24 11:10:01;;;;;;;;;67.33;54.33;;;;;21.74;48.49;98686.30;109328;1279;20575;-81
2021/12/24 11:12:29;;;;;;;;;66.00;54.00;;;;;21.76;48.68;98683.25;109354;1280;19268;-80
2021/12/24 11:14:54;;;;;;;;;66.67;50.67;;;;;21.74;48.66;98693.33;109275;1279;20582;-81
2021/12/24 11:17:20;;;;;;;;;63.67;51.33;;;;;21.73;48.85;98702.70;109270;1279;18784;-79
2021/12/24 11:19:46;;;;;;;;;60.00;49.67;;;;;21.75;48.98;98699.89;109329;1279;19480;-81
2021/12/24 11:22:12;;;;;;;;;60.33;46.67;;;;;21.73;48.91;98686.83;109348;1280;18514;-77
2021/12/24 11:24:38;;;;;;;;;55.00;43.00;;;;;21.74;49.00;98680.23;109327;1280;22763;-79
2021/12/24 11:27:04;;;;;;;;;50.50;42.00;;;;;21.77;49.02;98674.23;109303;1280;19407;-77
2021/12/24 11:29:30;;;;;;;;;51.50;43.00;;;;;21.76;48.93;98681.45;109238;1280;22810;-77
2021/12/24 11:31:56;;;;;;;;;45.33;40.00;;;;;21.74;49.13;98689.13;109286;1280;23794;-77
2021/12/24 11:34:22;;;;;;;;;42.67;40.00;;;;;21.77;49.06;98703.01;109313;1280;19610;-74
2021/12/24 11:36:48;;;;;;;;;50.00;42.00;;;;;21.78;49.09;98710.63;109308;1280;19033;-76
2021/12/24 11:39:14;;;;;;;;;45.00;38.50;;;;;21.80;48.89;98706.64;109239;1279;22181;-76
2021/12/24 11:41:40;;;;;;;;;42.00;38.50;;;;;21.79;48.90;98708.59;109270;1280;22078;-76
2021/12/24 11:44:07;;;;;;;;;37.00;33.00;;;;;21.71;48.58;98704.86;109320;1280;19117;-79
2021/12/24 11:46:33;;;;;;;;;49.00;39.67;;;;;21.53;48.06;98701.00;109338;1279;19196;-77
2021/12/24 11:48:59;;;;;;;;;42.00;36.00;;;;;21.44;47.51;98703.09;109250;1280;19345;-79
2021/12/24 11:51:25;;;;;;;;;38.67;36.00;;;;;21.36;46.94;98698.30;109330;1279;18833;-78
2021/12/24 11:53:51;;;;;;;;;41.00;37.50;;;;;21.19;46.23;98686.13;109373;1280;18775;-76
2021/12/24 11:56:17;;;;;;;;;41.00;34.50;;;;;21.29;46.21;98681.70;109336;1279;22537;-71
2021/12/24 11:58:43;;;;;;;;;39.00;37.00;;;;;21.44;46.13;98686.81;109331;1280;23987;-75
2021/12/24 12:01:09;;;;;;;;;38.50;36.00;;;;;21.55;45.71;98678.56;109307;1280;19416;-71
2021/12/24 12:03:34;;;;;;;;;37.50;34.00;;;;;21.60;45.84;98670.30;109353;1280;23364;-75
2021/12/24 12:06:00;;;;;;;;;33.00;30.00;;;;;21.59;45.77;98665.48;109311;1280;19231;-76
2021/12/24 12:08:27;;;;;;;;;37.00;32.50;;;;;21.61;46.06;98664.37;109346;1280;20936;-76
2021/12/24 12:10:53;;;;;;;;;39.67;33.67;;;;;21.65;44.92;98676.36;109242;1279;21910;-80
2021/12/24 12:13:19;;;;;;;;;31.67;29.67;;;;;21.59;44.90;98675.88;109295;1279;20892;-78
2021/12/24 12:15:45;;;;;;;;;32.00;29.50;;;;;21.54;45.38;98673.80;109305;1279;22422;-78
2021/12/24 12:18:13;;;;;;;;;33.50;30.00;;;;;21.52;45.75;98673.66;109294;1280;20146;-78
2021/12/24 12:20:45;;;;;;;;;31.67;29.67;;;;;21.53;46.00;98661.66;109327;1279;19434;-78